Weather at Vidzy Airstrip

Public forecast

Using degrees Celsius for public forecast. Weather courtesy of forecast.io.

Closest aviation weather report (METAR) to Vidzy Airstrip

Closest report is Vilnius International Airport, 64.3 nm (119.0 km) SW. Retrieved 2022/07/01 03:50 UTC (19 minutes ago):

EYVI 010350Z 15006KT CAVOK 20/17 Q1020 NOSIG

Closest aviation forecast (TAF) to Vidzy Airstrip

Closest forecast is Vilnius International Airport, 64.3 nm (119.0 km) SW. Retrieved 2022-07-01 00:03 UTC (4 hours ago):

TAF EYVI 302300Z 0100/0124 VRB05KT 8000 NSC TEMPO 0100/0103 1500 MIFG BR TEMPO 0108/0116 SCT040